Station History

Weather Underground - logo

Station Historical Data
Daily Summary for January 15, 2018 Units:  Metric    English   Both
« Previous Day
Next Day »
Daily Weekly Monthly Yearly Custom
  High: Low: Average:
Temperature: 17.1 °C 4.7 °C 10.7 °C
Dew Point: 12.8 °C 4.2 °C 9 °C
Humidity: 98 % 73 % 90 %
Wind Speed: 7.4 km/h 0 km/h 0.8 km/h
Wind Gust: 7.4 km/h - -
Wind:- - SSW
Pressure: 1022.2 hPa 1018.2 hPa -
Precipitation: 0.25 mm    
Historical Graphs
 
 
Tabular Data for January 15, 2018
Time Temperature Dew Point Pressure Wind Wind Speed Wind Gust Humidity Rainfall Rate (Hourly)
00:05 8.3 °C 7.8 °C 1021.2 hPa ESE 1.9 km/h   97 % 0 mm
00:16 8.3 °C 7.8 °C 1021.9 hPa Calm     97 % 0 mm
00:25 8.1 °C 7.7 °C 1021.9 hPa Calm     97 % 0 mm
00:38 7.6 °C 7 °C 1022.2 hPa ESE 1.9 km/h 1.9 km/h 96 % 0 mm
00:44 7.7 °C 7.2 °C 1022.2 hPa Calm     97 % 0 mm
01:03 7.8 °C 7.3 °C 1021.9 hPa Calm     97 % 0 mm
01:13 7.9 °C 7.5 °C 1022.2 hPa Calm     97 % 0.25 mm
01:24 7.5 °C 7.1 °C 1021.9 hPa Calm     97 % 0.25 mm
01:30 7.4 °C 7 °C 1021.6 hPa Calm     97 % 0.25 mm
01:43 7.2 °C 6.7 °C 1021.2 hPa Calm     97 % 0.25 mm
01:55 6.8 °C 6.2 °C 1020.9 hPa Calm     96 % 0.25 mm
02:01 6.7 °C 6.1 °C 1020.9 hPa Calm     96 % 0.25 mm
02:06 6.7 °C 6.1 °C 1020.5 hPa ESE 7.4 km/h 7.4 km/h 96 % 0 mm
02:11 6.5 °C 5.9 °C 1020.5 hPa Calm     96 % 0 mm
02:17 6.3 °C 5.7 °C 1020.5 hPa Calm     96 % 0 mm
02:29 6.2 °C 5.6 °C 1020.2 hPa Calm     96 % 0 mm
02:40 5.9 °C 5.3 °C 1019.9 hPa Calm     96 % 0 mm
02:55 5.8 °C 5.4 °C 1019.5 hPa ESE 1.9 km/h   97 % 0 mm
03:00 5.9 °C 5.5 °C 1019.9 hPa Calm     97 % 0 mm
03:09 5.9 °C 5.5 °C 1019.9 hPa Calm     97 % 0 mm
03:15 6 °C 5.6 °C 1019.5 hPa Calm     97 % 0 mm
03:21 5.9 °C 5.5 °C 1019.5 hPa Calm     97 % 0 mm
03:29 5.8 °C 5.4 °C 1019.9 hPa Calm     97 % 0 mm
03:36 5.8 °C 5.3 °C 1019.5 hPa ESE 1.9 km/h 1.9 km/h 97 % 0 mm
03:45 5.7 °C 5.3 °C 1019.9 hPa Calm     97 % 0 mm
03:51 5.8 °C 5.4 °C 1019.9 hPa Calm     97 % 0 mm
03:58 5.9 °C 5.5 °C 1019.9 hPa ESE 1.9 km/h 1.9 km/h 97 % 0 mm
04:08 6 °C 5.6 °C 1019.9 hPa ESE 1.9 km/h 1.9 km/h 97 % 0 mm
04:17 6.1 °C 5.6 °C 1020.2 hPa Calm     97 % 0 mm
04:25 6.2 °C 5.7 °C 1020.2 hPa Calm     97 % 0 mm
04:32 6.3 °C 5.8 °C 1020.2 hPa Calm     97 % 0 mm
04:37 6.3 °C 5.8 °C 1020.2 hPa Calm     97 % 0 mm
04:46 6.3 °C 5.8 °C 1020.5 hPa ESE 1.6 km/h   97 % 0 mm
04:55 6.2 °C 5.8 °C 1020.5 hPa WNW 1.9 km/h   97 % 0 mm
05:02 6.1 °C 5.6 °C 1020.5 hPa Calm     97 % 0 mm
05:07 6.1 °C 5.6 °C 1020.5 hPa Calm     97 % 0 mm
05:20 6.1 °C 5.6 °C 1020.5 hPa Calm     97 % 0 mm
05:26 6.1 °C 5.6 °C 1020.9 hPa Calm     97 % 0 mm
05:31 6.1 °C 5.7 °C 1020.9 hPa Calm     97 % 0 mm
06:00 5.5 °C 5.1 °C 1020.9 hPa Calm     97 % 0 mm
06:26 5.3 °C 4.9 °C 1020.9 hPa Calm     97 % 0 mm
06:31 5.3 °C 4.8 °C 1020.9 hPa Calm     97 % 0 mm
06:54 4.9 °C 4.5 °C 1021.2 hPa Calm     97 % 0 mm
07:09 4.8 °C 4.3 °C 1021.2 hPa Calm     97 % 0 mm
07:19 4.7 °C 4.2 °C 1021.2 hPa Calm     97 % 0 mm
07:33 4.7 °C 4.2 °C 1021.6 hPa Calm     97 % 0 mm
07:40 4.8 °C 4.3 °C 1021.2 hPa Calm     97 % 0 mm
07:46 4.9 °C 4.5 °C 1021.2 hPa Calm     97 % 0 mm
08:04 5.5 °C 5.1 °C 1020.9 hPa Calm     97 % 0 mm
08:18 6.8 °C 6.6 °C 1020.9 hPa Calm     98 % 0 mm
08:45 8.1 °C 7.8 °C 1020.9 hPa SE 1.6 km/h 1.6 km/h 98 % 0 mm
08:55 9.1 °C 8.8 °C 1020.9 hPa SE 1.9 km/h   98 % 0 mm
09:06 9.3 °C 9 °C 1020.9 hPa West 1.9 km/h   98 % 0 mm
09:14 9.4 °C 9.1 °C 1020.9 hPa West 1.9 km/h 1.9 km/h 98 % 0 mm
09:19 9.7 °C 9.4 °C 1020.9 hPa NW 3.7 km/h 3.7 km/h 98 % 0 mm
09:28 10.2 °C 9.9 °C 1020.9 hPa WNW 1.6 km/h 1.6 km/h 98 % 0 mm
09:33 10.3 °C 9.9 °C 1020.9 hPa NW 1.9 km/h 1.9 km/h 97 % 0 mm
09:38 10.7 °C 10.3 °C 1020.9 hPa SE 1.9 km/h 1.9 km/h 97 % 0 mm
09:44 11.1 °C 10.5 °C 1021.2 hPa WSW 5.6 km/h 5.6 km/h 96 % 0 mm
09:50 11.4 °C 10.3 °C 1021.2 hPa North 5.6 km/h 5.6 km/h 93 % 0 mm
10:02 11.6 °C 10.1 °C 1021.6 hPa West 5.6 km/h 5.6 km/h 91 % 0 mm
10:07 11.4 °C 10 °C 1021.2 hPa NW 1.9 km/h 1.9 km/h 91 % 0 mm
10:12 11.6 °C 10.1 °C 1021.2 hPa NW 1.9 km/h 1.9 km/h 91 % 0 mm
10:25 11.7 °C 10.1 °C 1021.2 hPa NW 1.9 km/h 1.9 km/h 90 % 0 mm
10:36 12 °C 10.4 °C 1021.2 hPa Calm     90 % 0 mm
10:42 12.4 °C 10.8 °C 1021.2 hPa WNW 1.9 km/h 1.9 km/h 90 % 0 mm
10:52 12.8 °C 10.9 °C 1021.2 hPa SE 1.9 km/h 1.9 km/h 88 % 0 mm
10:58 13.1 °C 10.8 °C 1021.2 hPa WNW 3.7 km/h 3.7 km/h 86 % 0 mm
11:10 13.3 °C 10.9 °C 1021.2 hPa Calm     85 % 0 mm
11:16 13.8 °C 11.1 °C 1021.2 hPa North 3.7 km/h 3.7 km/h 84 % 0 mm
11:26 14.1 °C 11.1 °C 1021.2 hPa North 1.9 km/h 1.9 km/h 82 % 0 mm
11:33 14.4 °C 11.6 °C 1021.2 hPa West 3.7 km/h 3.7 km/h 83 % 0 mm
11:44 14.3 °C 11.1 °C 1021.2 hPa NW 1.9 km/h 1.9 km/h 81 % 0 mm
11:49 14.2 °C 11.1 °C 1021.2 hPa Calm     82 % 0 mm
12:02 14.2 °C 11.1 °C 1020.9 hPa Calm     82 % 0 mm
12:11 14.5 °C 11.4 °C 1020.9 hPa Calm     82 % 0 mm
12:16 14.8 °C 11.6 °C 1020.5 hPa Calm     81 % 0 mm
12:28 15.4 °C 12 °C 1020.2 hPa SSE 3.7 km/h 3.7 km/h 80 % 0 mm
12:36 15.7 °C 11.9 °C 1020.2 hPa Calm     78 % 0 mm
12:46 16 °C 12.2 °C 1020.2 hPa Calm     78 % 0 mm
12:47 16 °C 12.2 °C 1020.2 hPa Calm     78 % 0 mm
12:48 16.1 °C 12 °C 1020.2 hPa Calm   0.3 km/h 77 % 0 mm
12:49 16.1 °C 12.1 °C 1020.2 hPa ENE 1.9 km/h 1.9 km/h 77 % 0 mm
12:50 16.1 °C 11.9 °C 1020.2 hPa ENE 1.9 km/h 1.9 km/h 76 % 0 mm
12:52 16.2 °C 12.1 °C 1019.9 hPa ESE 1.9 km/h 1.9 km/h 77 % 0 mm
12:53 16.2 °C 11.9 °C 1019.9 hPa ESE 1.9 km/h 1.9 km/h 76 % 0 mm
12:55 16.2 °C 11.9 °C 1019.9 hPa Calm     76 % 0 mm
12:59 16.2 °C 12.2 °C 1019.9 hPa Calm     77 % 0 mm
13:02 16.3 °C 12.3 °C 1019.9 hPa Calm     77 % 0 mm
13:06 16.4 °C 12 °C 1019.9 hPa Calm     75 % 0 mm
13:17 16.6 °C 12.1 °C 1019.5 hPa Calm     75 % 0 mm
13:26 16.6 °C 12.3 °C 1019.5 hPa ESE 1.9 km/h 1.9 km/h 76 % 0 mm
13:31 16.5 °C 12.3 °C 1019.5 hPa Calm     76 % 0 mm
13:38 16.4 °C 12.4 °C 1019.5 hPa Calm     77 % 0 mm
14:05 16.3 °C 12.7 °C 1018.8 hPa Calm     79 % 0 mm
14:13 16.4 °C 12.6 °C 1018.8 hPa Calm     78 % 0 mm
14:21 16.4 °C 12.4 °C 1019.2 hPa Calm     77 % 0 mm
14:34 16.6 °C 12.5 °C 1019.2 hPa Calm     77 % 0 mm
14:42 16.7 °C 12.6 °C 1019.2 hPa NW 1.6 km/h 1.6 km/h 77 % 0 mm
14:55 16.8 °C 12.8 °C 1019.5 hPa Calm     77 % 0 mm
15:04 16.9 °C 12.6 °C 1019.5 hPa NW 3.7 km/h 3.7 km/h 76 % 0 mm
15:10 16.9 °C 12.7 °C 1019.5 hPa Calm     76 % 0 mm
15:17 17 °C 12.3 °C 1019.2 hPa Calm     74 % 0 mm
15:32 17.1 °C 12.2 °C 1018.8 hPa Calm     73 % 0 mm
15:37 17.1 °C 12.4 °C 1018.8 hPa Calm     74 % 0 mm
15:59 16.8 °C 12.7 °C 1019.5 hPa NW 1.9 km/h   77 % 0 mm
16:17 16.5 °C 12.3 °C 1019.2 hPa Calm   0.2 km/h 76 % 0 mm
16:23 16.6 °C 12.3 °C 1019.2 hPa NNW 1.9 km/h   76 % 0 mm
16:30 16.5 °C 12.3 °C 1018.5 hPa Calm     76 % 0 mm
16:50 16.1 °C 12.2 °C 1018.5 hPa Calm     78 % 0 mm
17:14 14.7 °C 12 °C 1018.5 hPa Calm     84 % 0 mm
17:26 14.2 °C 11.8 °C 1018.5 hPa Calm     86 % 0 mm
17:32 13.9 °C 11.7 °C 1018.5 hPa Calm     86 % 0 mm
17:49 13.4 °C 11.6 °C 1018.2 hPa Calm     89 % 0 mm
18:04 12.8 °C 11.2 °C 1018.5 hPa Calm     90 % 0 mm
18:15 12.6 °C 11 °C 1018.5 hPa Calm     90 % 0 mm
18:25 12.3 °C 10.9 °C 1018.5 hPa Calm     91 % 0 mm
18:32 12 °C 10.6 °C 1018.5 hPa Calm     91 % 0 mm
18:48 11.7 °C 10.4 °C 1018.8 hPa Calm     92 % 0 mm
19:09 11.1 °C 10 °C 1018.8 hPa Calm     93 % 0 mm
19:16 11 °C 9.9 °C 1018.8 hPa Calm     93 % 0 mm
19:26 10.9 °C 9.9 °C 1018.8 hPa Calm     94 % 0 mm
19:46 10.9 °C 10 °C 1018.8 hPa Calm     94 % 0 mm
20:14 10.1 °C 9.2 °C 1019.5 hPa Calm     94 % 0 mm
20:33 9.8 °C 9.1 °C 1020.5 hPa NW 1.9 km/h 1.9 km/h 95 % 0 mm
20:49 10.4 °C 9.8 °C 1020.9 hPa NW 1.9 km/h 1.9 km/h 96 % 0 mm
21:02 10.4 °C 9.8 °C 1020.9 hPa Calm     96 % 0 mm
21:15 10.2 °C 9.6 °C 1020.9 hPa Calm     96 % 0 mm
21:23 10.2 °C 9.6 °C 1020.9 hPa Calm     96 % 0 mm
21:41 9.9 °C 9.3 °C 1020.9 hPa Calm     96 % 0 mm
21:53 9.5 °C 8.7 °C 1021.2 hPa Calm     95 % 0 mm
21:58 9.3 °C 8.5 °C 1020.9 hPa Calm     95 % 0 mm
22:11 9.1 °C 8.5 °C 1020.5 hPa ESE 1.9 km/h   96 % 0 mm
22:17 9.1 °C 8.5 °C 1020.5 hPa Calm     96 % 0 mm
22:23 9.2 °C 8.6 °C 1020.5 hPa Calm     96 % 0 mm
22:54 8.4 °C 7.7 °C 1020.9 hPa Calm     95 % 0 mm
23:00 8.6 °C 7.9 °C 1020.9 hPa Calm     96 % 0 mm
23:06 8.4 °C 7.8 °C 1020.9 hPa Calm     96 % 0 mm
23:11 8.3 °C 7.7 °C 1020.9 hPa Calm     96 % 0 mm
23:18 8.4 °C 7.8 °C 1020.9 hPa Calm     96 % 0 mm
23:25 8.4 °C 7.8 °C 1020.9 hPa Calm     96 % 0 mm
23:32 8.4 °C 7.8 °C 1020.5 hPa Calm     96 % 0 mm
23:53 8.4 °C 7.8 °C 1020.9 hPa Calm     96 % 0 mm
Park Place, Exeter, Tulare County, California, USA
Compliments of Weather Underground - 2 mb